Stacja Pogody
Warszawa Praga-Północ

Szerokość 52°15'43"N Długość 21°01'22"E Wysokość 110m n.p.m.


265 dzień roku.   Do końca pozostalo 100 dni.   Od wczoraj ubyło 4 min. i 1 sek. dnia.
Wschód Słońca 06:21 Górowanie Słońca 12:28 Zachód Słońca 18:35 panna
Data juliańska 2458019.759 Odległość Słońca 150089781 km Średn. kątowa Słońca 0,319°
Wschód Księżyca 08:34 Zachód Księżyca 19:50 Wiek Księżyca 2 dni Moon
Widoczność Księżyca 4,07% Odległość Księżyca 393756 km Średn. kątowa Księżyca 0,303°
Dzień krótszy od najdłuższego o: 04:33 Długość dnia 12:14 Imieniny Tomasza, Maurycego, Joachima



  Aktualizacja: 22-09-2017 06:11:14
TEMPERATURA
Aktualnie: 12.4°C →
Temperatura odczuwalna:14.7°C
Punkt rosy12.3°C
WIATR
Średnia prędkość: 0.0km/h →
Prędkość w podmuchach:0.0km/h
Przepływ w ciągu doby:40.8km
Kierunek wiatru:270°
CIŚNIENIE
Względne:1015.4hPa
Trend ciśnienia:powolny wzrost
WILGOTNOŚĆ
Wilgotność względna: 99% →
Podstawa chmur82m
DESZCZ
W ostatniej godzinie: 0.0mm
Dzisiaj:0.6mm
W tym miesiącu:103.8mm
METAR
EPWA 220400Z 31003KT 9999 BKN004 12/12 Q1015 NOSIG
Ostrzeżenia burzowe
Prognoza 12-to godzinna (prawdopodobieństwo 75%):   Dobra pogoda prognoza





a  a a